createdAt,value
2023-07-08T00:01:21.280Z,8.52
2023-07-08T00:03:49.355Z,7.65
2023-07-08T00:06:20.843Z,8.20
2023-07-08T00:08:48.254Z,8.38
2023-07-08T00:11:17.002Z,8.27
2023-07-08T00:13:43.951Z,8.63
2023-07-08T00:16:16.491Z,7.88
2023-07-08T00:18:43.282Z,8.75
2023-07-08T00:21:17.856Z,8.93
2023-07-08T00:23:48.213Z,8.80
2023-07-08T00:26:21.687Z,8.40
2023-07-08T00:28:48.470Z,9.02
2023-07-08T00:31:16.641Z,9.00
2023-07-08T00:33:49.510Z,9.93
2023-07-08T00:36:18.520Z,8.32
2023-07-08T00:38:46.547Z,8.88
2023-07-08T00:41:31.640Z,11.02
2023-07-08T00:44:00.275Z,9.88
2023-07-08T00:46:33.110Z,8.98
2023-07-08T00:49:09.477Z,10.43
2023-07-08T00:51:42.987Z,9.82
2023-07-08T00:54:14.197Z,10.70
2023-07-08T00:57:00.788Z,10.30
2023-07-08T00:59:32.519Z,9.55
2023-07-08T01:02:03.597Z,10.50
2023-07-08T01:04:54.713Z,9.45
2023-07-08T01:07:22.894Z,10.27
2023-07-08T01:10:02.123Z,11.13
2023-07-08T01:12:38.087Z,10.73
2023-07-08T01:15:07.918Z,10.07
2023-07-08T01:17:35.195Z,11.63
2023-07-08T01:20:07.259Z,11.82
2023-07-08T01:22:37.937Z,11.07
2023-07-08T01:25:05.663Z,11.82
2023-07-08T01:27:36.663Z,10.63
2023-07-08T01:30:05.764Z,12.02
2023-07-08T01:32:35.516Z,12.93
2023-07-08T01:35:04.404Z,12.13
2023-07-08T01:37:36.940Z,12.73
2023-07-08T01:40:22.546Z,13.40
2023-07-08T01:42:49.289Z,13.50
2023-07-08T01:45:18.950Z,13.20
2023-07-08T01:47:53.037Z,12.60
2023-07-08T01:50:21.228Z,14.10
2023-07-08T01:52:51.138Z,14.40
2023-07-08T01:55:23.626Z,14.93
2023-07-08T01:57:52.763Z,16.55
2023-07-08T02:00:20.590Z,16.20
2023-07-08T02:02:49.891Z,14.73
2023-07-08T02:05:17.991Z,15.93
2023-07-08T02:07:44.793Z,13.90
2023-07-08T02:10:11.788Z,16.58
2023-07-08T02:12:39.645Z,15.07
2023-07-08T02:15:07.213Z,15.52
2023-07-08T02:17:34.369Z,16.58
2023-07-08T02:20:01.212Z,16.13
2023-07-08T02:22:28.121Z,18.35
2023-07-08T02:24:55.346Z,16.65
2023-07-08T02:27:22.105Z,17.50
2023-07-08T02:29:48.883Z,16.83
2023-07-08T02:32:15.967Z,18.17
2023-07-08T02:34:42.784Z,17.42
2023-07-08T02:37:09.517Z,17.10
2023-07-08T02:39:36.339Z,16.75
2023-07-08T02:42:03.172Z,16.30
2023-07-08T02:44:29.966Z,16.48
2023-07-08T02:46:56.710Z,16.05
2023-07-08T02:49:23.730Z,16.73
2023-07-08T02:51:50.435Z,16.00
2023-07-08T02:54:17.240Z,14.90
2023-07-08T02:56:44.027Z,14.48
2023-07-08T02:59:10.833Z,15.68
2023-07-08T03:01:42.871Z,15.18
2023-07-08T03:04:14.221Z,16.23
2023-07-08T03:06:44.961Z,15.98
2023-07-08T03:09:13.927Z,15.85
2023-07-08T03:11:41.312Z,16.50
2023-07-08T03:14:11.461Z,15.80
2023-07-08T03:16:38.366Z,13.77
2023-07-08T03:19:05.981Z,14.02
2023-07-08T03:21:32.955Z,13.32
2023-07-08T03:23:59.700Z,13.55
2023-07-08T03:26:30.564Z,14.35
2023-07-08T03:28:59.961Z,15.02
2023-07-08T03:31:26.783Z,14.32
2023-07-08T03:33:53.597Z,14.13
2023-07-08T03:36:26.607Z,13.95
2023-07-08T03:38:56.748Z,14.13
2023-07-08T03:41:24.753Z,14.02
2023-07-08T03:43:54.511Z,13.73
2023-07-08T03:48:49.797Z,12.27
2023-07-08T03:51:29.808Z,14.65
2023-07-08T03:53:56.815Z,12.82
2023-07-08T03:56:23.776Z,14.75
2023-07-08T03:58:52.369Z,13.15
2023-07-08T04:01:22.110Z,14.48
2023-07-08T04:06:16.161Z,14.98
2023-07-08T04:08:43.511Z,14.93
2023-07-08T04:11:21.579Z,14.00
2023-07-08T04:13:48.933Z,14.40
2023-07-08T04:16:23.278Z,14.95
2023-07-08T04:18:52.215Z,15.18
2023-07-08T04:23:48.936Z,14.10
2023-07-08T04:26:16.216Z,14.38
2023-07-08T04:28:44.141Z,13.80
2023-07-08T04:31:11.790Z,14.57
2023-07-08T04:33:38.651Z,14.15
2023-07-08T04:36:10.962Z,14.23
2023-07-08T04:38:37.866Z,15.52
2023-07-08T04:41:04.732Z,14.35
2023-07-08T04:43:31.489Z,14.73
2023-07-08T04:45:59.086Z,13.75
2023-07-08T04:48:26.409Z,13.75
2023-07-08T04:50:54.491Z,14.38
2023-07-08T04:53:21.443Z,14.13
2023-07-08T04:55:52.159Z,14.60
2023-07-08T04:58:19.156Z,14.48
2023-07-08T05:00:45.983Z,14.88
2023-07-08T05:03:13.100Z,14.15
2023-07-08T05:05:39.887Z,14.05
2023-07-08T05:08:07.792Z,14.07
2023-07-08T05:10:34.911Z,15.20
2023-07-08T05:13:01.986Z,15.27
2023-07-08T05:15:28.759Z,15.20
2023-07-08T05:17:55.546Z,15.43
2023-07-08T05:20:23.345Z,15.90
2023-07-08T05:22:50.078Z,14.43
2023-07-08T05:25:17.252Z,14.02
2023-07-08T05:27:44.123Z,13.05
2023-07-08T05:30:15.963Z,14.43
2023-07-08T05:32:42.915Z,13.38
2023-07-08T05:35:11.077Z,13.00
2023-07-08T05:37:38.506Z,12.63
2023-07-08T05:40:06.111Z,12.00
2023-07-08T05:42:33.115Z,11.73
2023-07-08T05:44:59.945Z,11.55
2023-07-08T05:47:27.786Z,11.93
2023-07-08T05:49:54.617Z,11.82
2023-07-08T05:52:21.626Z,12.13
2023-07-08T05:54:48.489Z,11.02
2023-07-08T05:57:15.228Z,11.50
2023-07-08T05:59:44.405Z,11.00
2023-07-08T06:02:13.246Z,10.48
2023-07-08T06:04:40.889Z,10.38
2023-07-08T06:07:07.873Z,9.75
2023-07-08T06:09:35.183Z,9.25
2023-07-08T06:12:01.915Z,8.73
2023-07-08T06:14:29.254Z,12.35
2023-07-08T06:16:56.754Z,8.45
2023-07-08T06:19:23.755Z,7.82
2023-07-08T06:21:50.583Z,8.50
2023-07-08T06:24:17.863Z,7.80
2023-07-08T06:26:44.594Z,9.32
2023-07-08T06:29:11.330Z,7.83
2023-07-08T06:31:38.132Z,7.70
2023-07-08T06:34:05.431Z,7.85
2023-07-08T06:36:32.800Z,8.65
2023-07-08T06:41:26.207Z,8.70
2023-07-08T06:43:53.809Z,7.90
2023-07-08T06:46:21.189Z,8.65
2023-07-08T06:48:48.461Z,6.38
2023-07-08T06:53:41.956Z,6.43
2023-07-08T06:56:09.433Z,6.40
2023-07-08T06:58:36.455Z,6.25
2023-07-08T07:01:04.106Z,5.20
2023-07-08T07:03:31.240Z,5.18
2023-07-08T07:05:58.105Z,5.32
2023-07-08T07:08:25.159Z,4.82
2023-07-08T07:13:19.848Z,6.07
2023-07-08T07:15:52.402Z,6.00
2023-07-08T07:18:19.627Z,6.15
2023-07-08T07:23:22.049Z,5.90
2023-07-08T07:25:48.787Z,5.65
2023-07-08T07:28:17.868Z,5.45
2023-07-08T07:30:46.172Z,5.20
2023-07-08T07:33:13.905Z,4.93
2023-07-08T07:35:47.357Z,4.72
2023-07-08T07:38:15.985Z,3.50
2023-07-08T07:40:42.832Z,3.90
2023-07-08T07:43:09.872Z,4.13
2023-07-08T07:45:37.007Z,4.97
2023-07-08T07:48:04.409Z,4.53
2023-07-08T07:50:32.132Z,3.65
2023-07-08T07:52:59.860Z,3.90
2023-07-08T07:55:27.125Z,4.47
2023-07-08T07:57:53.913Z,4.22
2023-07-08T08:00:20.860Z,4.35
2023-07-08T08:02:47.926Z,3.67
2023-07-08T08:05:14.849Z,3.78
2023-07-08T08:07:42.148Z,3.20
2023-07-08T08:10:11.280Z,3.40
2023-07-08T08:12:48.603Z,3.65
2023-07-08T08:15:19.663Z,3.30
2023-07-08T08:17:50.172Z,2.95
2023-07-08T08:20:17.466Z,2.42
2023-07-08T08:22:44.614Z,2.60
2023-07-08T08:25:11.576Z,2.45
2023-07-08T08:27:38.605Z,2.92
2023-07-08T08:30:07.136Z,2.50
2023-07-08T08:32:34.281Z,3.15
2023-07-08T08:35:02.957Z,2.80
2023-07-08T08:37:30.613Z,2.35
2023-07-08T08:39:57.561Z,2.60
2023-07-08T08:42:33.844Z,2.60
2023-07-08T08:45:03.700Z,2.38
2023-07-08T08:47:40.433Z,2.50
2023-07-08T08:50:29.477Z,2.60
2023-07-08T08:52:57.987Z,2.50
2023-07-08T08:55:26.368Z,2.50
2023-07-08T08:58:12.608Z,2.80
2023-07-08T09:00:48.157Z,2.20
2023-07-08T09:03:34.127Z,2.80
2023-07-08T09:06:02.164Z,2.50
2023-07-08T09:08:33.488Z,2.60
2023-07-08T09:11:22.095Z,2.58
2023-07-08T09:13:50.208Z,2.30
2023-07-08T09:16:44.587Z,2.20
2023-07-08T09:19:26.695Z,2.42
2023-07-08T09:22:05.849Z,2.55
2023-07-08T09:24:46.227Z,2.50
2023-07-08T09:27:13.112Z,2.42
2023-07-08T09:29:39.887Z,2.47
2023-07-08T09:32:23.038Z,2.30
2023-07-08T09:34:56.808Z,2.25
2023-07-08T09:37:47.251Z,2.40
2023-07-08T09:40:33.749Z,2.30
2023-07-08T09:43:14.978Z,2.28
2023-07-08T09:45:45.775Z,2.22
2023-07-08T09:48:31.514Z,2.80
2023-07-08T09:51:00.021Z,2.40
2023-07-08T09:53:30.576Z,2.75
2023-07-08T09:56:03.921Z,2.47
2023-07-08T09:58:35.515Z,2.42
2023-07-08T10:01:11.903Z,2.55
2023-07-08T10:03:40.787Z,2.80
2023-07-08T10:06:23.291Z,2.90
2023-07-08T10:08:50.430Z,3.08
2023-07-08T10:11:28.383Z,2.63
2023-07-08T10:14:13.408Z,2.93
2023-07-08T10:16:41.441Z,2.80
2023-07-08T10:19:17.673Z,2.65
2023-07-08T10:21:59.250Z,2.53
2023-07-08T10:24:34.909Z,2.95
2023-07-08T10:27:20.024Z,3.42
2023-07-08T10:30:07.367Z,2.53
2023-07-08T10:33:14.549Z,2.90
2023-07-08T10:36:23.184Z,2.78
2023-07-08T10:38:55.116Z,2.80
2023-07-08T10:42:01.632Z,2.63
2023-07-08T10:44:39.104Z,2.92
2023-07-08T10:47:46.299Z,2.75
2023-07-08T10:50:28.952Z,2.60
2023-07-08T10:53:10.585Z,2.58
2023-07-08T10:55:51.810Z,2.85
2023-07-08T10:58:33.471Z,2.70
2023-07-08T11:01:06.642Z,2.90
2023-07-08T11:03:46.324Z,2.92
2023-07-08T11:06:27.925Z,2.78
2023-07-08T11:09:03.288Z,3.08
2023-07-08T11:11:52.459Z,3.00
2023-07-08T11:14:50.995Z,2.92
2023-07-08T11:17:31.924Z,2.90
2023-07-08T11:20:19.678Z,2.72
2023-07-08T11:22:59.802Z,2.50
2023-07-08T11:25:30.846Z,2.35
2023-07-08T11:28:04.090Z,2.70
2023-07-08T11:30:34.339Z,2.65
2023-07-08T11:33:10.222Z,2.85
2023-07-08T11:35:48.050Z,2.70
2023-07-08T11:38:19.470Z,2.60
2023-07-08T11:41:01.694Z,2.78
2023-07-08T11:43:57.268Z,2.70
2023-07-08T11:46:31.515Z,2.75
2023-07-08T11:49:15.650Z,3.13
2023-07-08T11:51:47.068Z,2.40
2023-07-08T11:54:30.532Z,2.40
2023-07-08T11:57:25.264Z,2.40
2023-07-08T12:00:14.126Z,3.00
2023-07-08T12:02:59.531Z,2.53
2023-07-08T12:05:36.877Z,2.97
2023-07-08T12:08:12.531Z,2.58
2023-07-08T12:10:44.900Z,2.33
2023-07-08T12:13:18.439Z,2.60
2023-07-08T12:15:45.430Z,2.53
2023-07-08T12:18:23.613Z,2.60
2023-07-08T12:20:56.471Z,2.65
2023-07-08T12:23:25.534Z,2.40
2023-07-08T12:25:54.429Z,2.67
2023-07-08T12:28:22.875Z,2.58
2023-07-08T12:30:52.466Z,2.72
2023-07-08T12:33:33.186Z,2.38
2023-07-08T12:36:02.238Z,3.00
2023-07-08T12:38:33.883Z,2.78
2023-07-08T12:41:06.929Z,2.55
2023-07-08T12:43:33.934Z,2.42
2023-07-08T12:46:00.709Z,2.55
2023-07-08T12:48:33.058Z,2.65
2023-07-08T12:50:59.964Z,2.70
2023-07-08T12:53:27.181Z,2.20
2023-07-08T12:55:56.493Z,2.55
2023-07-08T12:58:29.790Z,2.50
2023-07-08T13:00:59.669Z,2.22
2023-07-08T13:03:32.527Z,2.42
2023-07-08T13:06:02.123Z,2.65
2023-07-08T13:08:35.989Z,2.38
2023-07-08T13:11:07.446Z,2.60
2023-07-08T13:13:41.536Z,2.50
2023-07-08T13:16:11.690Z,2.40
2023-07-08T13:18:42.297Z,2.47
2023-07-08T13:21:13.734Z,2.65
2023-07-08T13:23:41.653Z,2.22
2023-07-08T13:26:23.056Z,2.47
2023-07-08T13:28:51.273Z,2.38
2023-07-08T13:31:25.532Z,2.67
2023-07-08T13:33:55.074Z,2.97
2023-07-08T13:36:36.133Z,2.45
2023-07-08T13:39:07.924Z,2.38
2023-07-08T13:41:35.571Z,2.63
2023-07-08T13:44:07.723Z,2.40
2023-07-08T13:46:42.061Z,2.28
2023-07-08T13:49:15.884Z,2.40
2023-07-08T13:51:43.338Z,2.15
2023-07-08T13:54:40.038Z,2.28
2023-07-08T13:57:18.515Z,2.10
2023-07-08T13:59:46.182Z,2.17
2023-07-08T14:02:24.629Z,2.47
2023-07-08T14:04:53.857Z,2.05
2023-07-08T14:07:23.678Z,2.33
2023-07-08T14:09:50.798Z,2.30
2023-07-08T14:12:17.562Z,2.20
2023-07-08T14:14:44.304Z,2.22
2023-07-08T14:17:15.751Z,2.28
2023-07-08T14:19:42.534Z,2.22
2023-07-08T14:22:29.386Z,2.22
2023-07-08T14:24:58.095Z,2.15
2023-07-08T14:27:25.630Z,1.98
2023-07-08T14:29:53.492Z,2.05
2023-07-08T14:32:32.242Z,2.22
2023-07-08T14:35:12.150Z,2.17
2023-07-08T14:37:41.154Z,2.58
2023-07-08T14:40:32.955Z,2.42
2023-07-08T14:43:03.132Z,2.42
2023-07-08T14:45:33.135Z,2.42
2023-07-08T14:48:00.281Z,2.30
2023-07-08T14:50:31.636Z,2.58
2023-07-08T14:52:58.484Z,2.55
2023-07-08T14:55:26.101Z,2.45
2023-07-08T14:57:53.612Z,2.47
2023-07-08T15:00:20.821Z,2.60
2023-07-08T15:02:49.549Z,2.47
2023-07-08T15:05:24.285Z,2.63
2023-07-08T15:07:53.569Z,2.75
2023-07-08T15:10:25.388Z,2.57
2023-07-08T15:12:52.265Z,2.65
2023-07-08T15:15:29.873Z,3.10
2023-07-08T15:18:02.234Z,3.15
2023-07-08T15:20:33.653Z,3.10
2023-07-08T15:23:01.481Z,2.60
2023-07-08T15:25:28.712Z,3.15
2023-07-08T15:27:58.300Z,3.20
2023-07-08T15:30:29.254Z,2.70
2023-07-08T15:32:57.386Z,3.33
2023-07-08T15:35:27.096Z,2.87
2023-07-08T15:37:54.155Z,2.78
2023-07-08T15:40:23.833Z,3.10
2023-07-08T15:42:53.158Z,2.63
2023-07-08T15:45:41.687Z,2.60
2023-07-08T15:48:15.654Z,2.70
2023-07-08T15:50:43.422Z,2.70
2023-07-08T15:53:10.312Z,2.67
2023-07-08T15:55:45.658Z,3.03
2023-07-08T15:58:20.096Z,2.95
2023-07-08T16:00:46.974Z,2.83
2023-07-08T16:03:25.054Z,3.28
2023-07-08T16:05:53.527Z,3.20
2023-07-08T16:08:20.491Z,2.53
2023-07-08T16:10:53.787Z,2.80
2023-07-08T16:13:29.835Z,3.20
2023-07-08T16:15:56.799Z,2.67
2023-07-08T16:18:23.753Z,2.65
2023-07-08T16:20:50.785Z,2.80
2023-07-08T16:23:17.677Z,2.85
2023-07-08T16:25:47.340Z,3.10
2023-07-08T16:28:44.263Z,3.03
2023-07-08T16:31:16.169Z,2.75
2023-07-08T16:33:43.848Z,2.92
2023-07-08T16:36:16.672Z,2.80
2023-07-08T16:38:43.865Z,3.05
2023-07-08T16:41:13.885Z,2.85
2023-07-08T16:43:41.542Z,3.17
2023-07-08T16:46:13.974Z,2.88
2023-07-08T16:48:44.599Z,3.20
2023-07-08T16:51:21.159Z,2.67
2023-07-08T16:53:48.110Z,2.80
2023-07-08T16:56:19.315Z,3.00
2023-07-08T16:58:46.151Z,2.95
2023-07-08T17:01:21.034Z,3.10
2023-07-08T17:03:49.983Z,2.88
2023-07-08T17:06:16.953Z,2.60
2023-07-08T17:08:45.156Z,2.85
2023-07-08T17:11:14.517Z,2.63
2023-07-08T17:13:42.296Z,2.83
2023-07-08T17:16:15.089Z,3.30
2023-07-08T17:18:41.944Z,2.53
2023-07-08T17:21:14.066Z,2.72
2023-07-08T17:23:41.779Z,3.10
2023-07-08T17:26:08.719Z,2.97
2023-07-08T17:28:36.876Z,2.70
2023-07-08T17:31:05.456Z,2.80
2023-07-08T17:33:33.496Z,2.92
2023-07-08T17:36:00.993Z,2.80
2023-07-08T17:38:48.009Z,3.38
2023-07-08T17:41:20.730Z,2.95
2023-07-08T17:43:48.810Z,2.83
2023-07-08T17:46:20.575Z,2.88
2023-07-08T17:48:48.909Z,2.80
2023-07-08T17:51:17.293Z,2.65
2023-07-08T17:53:45.070Z,3.00
2023-07-08T17:56:19.363Z,2.95
2023-07-08T17:58:51.729Z,3.22
2023-07-08T18:01:20.431Z,2.85
2023-07-08T18:03:49.859Z,2.75
2023-07-08T18:06:17.858Z,3.03
2023-07-08T18:08:45.932Z,3.15
2023-07-08T18:11:15.095Z,3.08
2023-07-08T18:13:42.864Z,2.85
2023-07-08T18:16:17.897Z,3.35
2023-07-08T18:18:47.383Z,3.20
2023-07-08T18:21:20.346Z,3.40
2023-07-08T18:23:49.723Z,3.38
2023-07-08T18:26:27.507Z,3.97
2023-07-08T18:28:55.516Z,4.38
2023-07-08T18:31:32.170Z,4.20
2023-07-08T18:34:03.573Z,4.57
2023-07-08T18:36:31.085Z,4.65
2023-07-08T18:38:58.475Z,5.00
2023-07-08T18:41:29.644Z,4.85
2023-07-08T18:43:57.965Z,4.70
2023-07-08T18:46:25.505Z,5.25
2023-07-08T18:48:52.429Z,4.85
2023-07-08T18:51:27.047Z,5.15
2023-07-08T18:53:55.224Z,11.98
2023-07-08T18:56:22.053Z,6.20
2023-07-08T18:58:50.239Z,5.65
2023-07-08T19:01:28.433Z,5.85
2023-07-08T19:03:58.340Z,4.47
2023-07-08T19:06:26.206Z,5.78
2023-07-08T19:08:53.044Z,5.00
2023-07-08T19:11:23.435Z,5.03
2023-07-08T19:13:51.460Z,5.70
2023-07-08T19:16:21.596Z,8.20
2023-07-08T19:18:51.371Z,12.90
2023-07-08T19:21:28.128Z,7.50
2023-07-08T19:23:56.198Z,7.72
2023-07-08T19:26:25.822Z,7.80
2023-07-08T19:28:54.326Z,7.68
2023-07-08T19:31:29.626Z,6.38
2023-07-08T19:33:57.381Z,7.68
2023-07-08T19:36:24.324Z,6.80
2023-07-08T19:38:51.732Z,7.57
2023-07-08T19:41:25.263Z,10.10
2023-07-08T19:43:53.308Z,8.77
2023-07-08T19:46:20.260Z,9.27
2023-07-08T19:48:47.231Z,12.05
2023-07-08T19:51:14.436Z,9.88
2023-07-08T19:53:41.575Z,8.55
2023-07-08T19:56:16.856Z,7.90
2023-07-08T19:58:46.110Z,16.48
2023-07-08T20:01:13.535Z,11.02
2023-07-08T20:03:40.724Z,7.28
2023-07-08T20:06:21.696Z,6.40
2023-07-08T20:08:48.533Z,6.20
2023-07-08T20:11:16.668Z,6.07
2023-07-08T20:13:43.545Z,5.68
2023-07-08T20:16:26.266Z,6.63
2023-07-08T20:18:59.554Z,5.65
2023-07-08T20:21:27.195Z,7.45
2023-07-08T20:23:54.307Z,7.53
2023-07-08T20:26:34.054Z,6.47
2023-07-08T20:29:00.888Z,6.38
2023-07-08T20:31:28.664Z,6.95
2023-07-08T20:33:55.774Z,7.15
2023-07-08T20:36:25.071Z,7.95
2023-07-08T20:38:52.090Z,6.97
2023-07-08T20:41:19.798Z,7.78
2023-07-08T20:43:46.593Z,7.53
2023-07-08T20:46:20.954Z,9.02
2023-07-08T20:48:48.784Z,8.57
2023-07-08T20:51:16.474Z,9.05
2023-07-08T20:53:43.378Z,9.95
2023-07-08T20:56:23.848Z,10.43
2023-07-08T20:58:51.408Z,9.07
2023-07-08T21:01:18.270Z,7.38
2023-07-08T21:03:48.062Z,7.22
2023-07-08T21:06:24.104Z,7.15
2023-07-08T21:08:56.387Z,7.22
2023-07-08T21:11:23.193Z,7.45
2023-07-08T21:13:50.650Z,6.63
2023-07-08T21:16:24.475Z,7.03
2023-07-08T21:18:53.729Z,7.03
2023-07-08T21:21:21.855Z,6.35
2023-07-08T21:23:49.633Z,6.43
2023-07-08T21:26:25.812Z,6.30
2023-07-08T21:28:55.091Z,6.10
2023-07-08T21:31:22.009Z,5.72
2023-07-08T21:33:50.720Z,5.55
2023-07-08T21:36:24.956Z,5.70
2023-07-08T21:38:53.630Z,5.65
2023-07-08T21:41:21.053Z,6.37
2023-07-08T21:43:47.913Z,6.72
2023-07-08T21:46:14.840Z,6.88
2023-07-08T21:48:42.221Z,7.00
2023-07-08T21:51:27.362Z,6.45
2023-07-08T21:53:54.895Z,6.65
2023-07-08T21:56:21.965Z,6.40
2023-07-08T21:58:49.081Z,6.68
2023-07-08T22:01:27.755Z,6.72
2023-07-08T22:03:57.406Z,6.33
2023-07-08T22:06:25.269Z,5.80
2023-07-08T22:08:52.062Z,6.47
2023-07-08T22:11:26.996Z,6.22
2023-07-08T22:13:56.737Z,5.35
2023-07-08T22:16:24.963Z,5.55
2023-07-08T22:18:53.136Z,6.22
2023-07-08T22:21:29.759Z,5.60
2023-07-08T22:24:02.026Z,5.78
2023-07-08T22:26:29.893Z,6.20
2023-07-08T22:28:56.762Z,5.70
2023-07-08T22:31:27.370Z,6.25
2023-07-08T22:33:54.761Z,5.93
2023-07-08T22:36:22.358Z,5.70
2023-07-08T22:39:09.234Z,5.70
2023-07-08T22:41:46.113Z,6.40
2023-07-08T22:44:14.875Z,6.80
2023-07-08T22:46:42.203Z,6.72
2023-07-08T22:49:09.410Z,7.47
2023-07-08T22:51:42.753Z,6.68
2023-07-08T22:54:15.490Z,7.05
2023-07-08T22:56:42.770Z,6.80
2023-07-08T22:59:09.584Z,6.90
2023-07-08T23:01:36.405Z,6.53
2023-07-08T23:04:03.557Z,7.05
2023-07-08T23:06:30.701Z,5.95
2023-07-08T23:08:57.512Z,6.47
2023-07-08T23:11:24.535Z,6.35
2023-07-08T23:13:51.635Z,6.50
2023-07-08T23:16:27.004Z,5.35
2023-07-08T23:18:54.380Z,6.43
2023-07-08T23:21:23.911Z,6.65
2023-07-08T23:23:50.917Z,6.35
2023-07-08T23:26:23.676Z,6.60
2023-07-08T23:28:56.023Z,9.95
2023-07-08T23:31:23.481Z,7.20
2023-07-08T23:33:50.426Z,7.07
2023-07-08T23:36:35.710Z,6.45
2023-07-08T23:39:04.861Z,6.47
2023-07-08T23:41:33.292Z,6.40
2023-07-08T23:44:00.253Z,6.80
2023-07-08T23:46:31.865Z,6.25
2023-07-08T23:49:11.458Z,6.25
2023-07-08T23:54:11.156Z,6.63
2023-07-08T23:56:38.208Z,6.53
2023-07-08T23:59:05.025Z,6.70
